Springerton, Illinois
Current Conditions -  °F | °C
As of 7:35 PM on Wednesday 26 Nov 2014 (Local Time) from KCUL Reporting Station
Light Snow Light Snow  
Wind Chill: 34°   Ceiling: 300
Heat Index: 34°   Visibility: 1.7mi
Dew Point: 34°   Wind: 3mph
Humidity: 100%   Direction: 40°NE
Pressure: 30.05"   Gusts: NA
Location:  38.18°N, 88.35°W
Report Text: KCUL 270135Z AUTO 04003KT 1 3/4SM -SN OVC003 01/01 A3005 RMK AO2 P0001 T00100010
Loading
Personal Weather Stations






























Interactive Weather Map New forecast layout! Learn more

10-Day Weather Forecast

Advertisements
Track Severe Weather on mobile